Terminal Aerodrome Forecast
Issued by NWS

Home | Current Version | Previous Version | Text Only | Print | Product List | Glossary On
Versions: 1 2 3 4 5 6 7 8 9 10 11 12 13 14 15 16
764
FTUS44 KLUB 211358 AAA
TAFCDS
TAF AMD
KCDS 211358Z 2114/2212 08010KT 4SM -SHRA BR SCT004 BKN023
      TEMPO 2114/2116 2SM -RA BR BKN004
     FM211800 01011KT P6SM SCT008 OVC015
     FM220200 35009KT P6SM SCT015 SCT100=

USA.gov is the U.S. government's official web portal to all federal, state and local government web resources and services.